createdAt,value
2022-10-03T00:00:09.568Z,10.30
2022-10-03T00:03:30.966Z,10.20
2022-10-03T00:06:31.029Z,10.20
2022-10-03T00:09:36.903Z,10.20
2022-10-03T00:12:47.772Z,10.30
2022-10-03T00:15:44.968Z,10.30
2022-10-03T00:18:41.363Z,10.40
2022-10-03T00:21:42.554Z,10.40
2022-10-03T00:24:45.211Z,10.40
2022-10-03T00:27:41.085Z,10.30
2022-10-03T00:30:43.208Z,10.30
2022-10-03T00:33:41.012Z,10.30
2022-10-03T00:36:38.555Z,10.30
2022-10-03T00:39:42.672Z,10.20
2022-10-03T00:43:17.146Z,10.20
2022-10-03T00:46:35.223Z,10.10
2022-10-03T00:50:10.797Z,10.10
2022-10-03T00:53:29.035Z,10.10
2022-10-03T00:56:39.313Z,10.00
2022-10-03T00:59:40.231Z,10.10
2022-10-03T01:02:45.698Z,10.00
2022-10-03T01:05:50.344Z,10.10
2022-10-03T01:08:58.858Z,10.00
2022-10-03T01:12:02.055Z,10.00
2022-10-03T01:15:11.613Z,10.00
2022-10-03T01:18:29.058Z,10.10
2022-10-03T01:21:23.544Z,10.20
2022-10-03T01:24:39.913Z,10.20
2022-10-03T01:27:59.747Z,10.30
2022-10-03T01:30:53.432Z,10.30
2022-10-03T01:33:45.823Z,10.40
2022-10-03T01:36:40.541Z,10.40
2022-10-03T01:39:33.391Z,10.40
2022-10-03T01:42:34.909Z,10.40
2022-10-03T01:45:30.885Z,10.40
2022-10-03T01:48:23.990Z,10.50
2022-10-03T01:51:16.820Z,10.50
2022-10-03T01:54:15.076Z,10.50
2022-10-03T01:57:12.124Z,10.50
2022-10-03T02:00:06.807Z,10.50
2022-10-03T02:03:07.053Z,10.50
2022-10-03T02:06:02.114Z,10.50
2022-10-03T02:08:56.509Z,10.50
2022-10-03T02:12:03.353Z,10.60
2022-10-03T02:14:58.807Z,10.50
2022-10-03T02:17:57.951Z,10.60
2022-10-03T02:20:52.194Z,10.60
2022-10-03T02:23:45.371Z,10.60
2022-10-03T02:27:08.294Z,10.60
2022-10-03T02:30:11.526Z,10.70
2022-10-03T02:33:44.375Z,10.70
2022-10-03T02:36:54.388Z,10.70
2022-10-03T02:40:17.611Z,10.70
2022-10-03T02:43:48.209Z,10.80
2022-10-03T02:47:02.049Z,10.80
2022-10-03T02:50:22.925Z,10.80
2022-10-03T02:53:51.518Z,10.80
2022-10-03T02:57:16.582Z,10.80
2022-10-03T03:00:12.184Z,10.80
2022-10-03T03:03:36.071Z,10.80
2022-10-03T03:06:53.973Z,10.80
2022-10-03T03:10:29.182Z,10.80
2022-10-03T03:13:51.830Z,10.80
2022-10-03T03:16:57.568Z,10.80
2022-10-03T03:20:00.832Z,10.80
2022-10-03T03:23:08.147Z,10.80
2022-10-03T03:26:14.093Z,10.80
2022-10-03T03:29:10.648Z,10.80
2022-10-03T03:32:07.097Z,10.80
2022-10-03T03:35:04.289Z,10.90
2022-10-03T03:38:02.061Z,10.80
2022-10-03T03:41:06.781Z,10.90
2022-10-03T03:44:26.652Z,10.90
2022-10-03T03:47:31.510Z,10.90
2022-10-03T03:50:48.607Z,10.90
2022-10-03T03:54:08.271Z,10.90
2022-10-03T03:57:16.184Z,10.90
2022-10-03T04:00:13.136Z,10.80
2022-10-03T04:03:27.509Z,10.80
2022-10-03T04:06:38.140Z,10.80
2022-10-03T04:09:47.440Z,10.80
2022-10-03T04:12:56.111Z,10.80
2022-10-03T04:16:06.739Z,10.80
2022-10-03T04:19:03.844Z,10.80
2022-10-03T04:22:12.103Z,10.80
2022-10-03T04:25:33.391Z,10.80
2022-10-03T04:28:43.617Z,10.80
2022-10-03T04:31:41.845Z,10.80
2022-10-03T04:34:45.416Z,10.80
2022-10-03T04:37:40.002Z,10.80
2022-10-03T04:40:42.832Z,10.80
2022-10-03T04:43:43.989Z,10.80
2022-10-03T04:46:36.951Z,10.80
2022-10-03T04:49:32.450Z,10.90
2022-10-03T04:52:28.297Z,10.90
2022-10-03T04:55:24.605Z,10.90
2022-10-03T04:58:26.852Z,10.90
2022-10-03T05:01:22.408Z,10.90
2022-10-03T05:04:26.757Z,10.90
2022-10-03T05:07:22.186Z,10.90
2022-10-03T05:10:31.437Z,10.90
2022-10-03T05:13:27.271Z,10.90
2022-10-03T05:16:24.534Z,10.90
2022-10-03T05:19:42.071Z,10.90
2022-10-03T05:22:40.523Z,10.90
2022-10-03T05:25:42.117Z,10.90
2022-10-03T05:28:39.018Z,10.90
2022-10-03T05:31:46.192Z,10.90
2022-10-03T05:34:44.769Z,10.80
2022-10-03T05:37:53.428Z,10.90
2022-10-03T05:40:44.644Z,10.80
2022-10-03T05:43:50.405Z,10.80
2022-10-03T05:46:54.272Z,10.80
2022-10-03T05:49:58.585Z,10.80
2022-10-03T05:53:03.528Z,10.80
2022-10-03T05:56:05.401Z,10.90
2022-10-03T05:59:30.779Z,10.90
2022-10-03T06:02:43.558Z,10.90
2022-10-03T06:05:46.147Z,11.00
2022-10-03T06:08:54.131Z,11.00
2022-10-03T06:12:02.999Z,11.10
2022-10-03T06:15:15.951Z,11.10
2022-10-03T06:18:19.775Z,11.10
2022-10-03T06:21:42.476Z,11.10
2022-10-03T06:25:01.919Z,11.10
2022-10-03T06:28:26.158Z,11.20
2022-10-03T06:31:51.779Z,11.10
2022-10-03T06:35:15.799Z,11.10
2022-10-03T06:38:52.195Z,11.10
2022-10-03T06:42:13.545Z,11.10
2022-10-03T06:45:50.789Z,11.10
2022-10-03T06:49:18.071Z,11.10
2022-10-03T06:52:45.311Z,11.20
2022-10-03T06:56:11.150Z,11.20
2022-10-03T06:59:23.374Z,11.30
2022-10-03T07:02:43.744Z,11.30
2022-10-03T07:06:04.781Z,11.30
2022-10-03T07:09:33.139Z,11.40
2022-10-03T07:12:59.187Z,11.30
2022-10-03T07:16:37.278Z,11.30
2022-10-03T07:19:44.322Z,11.40
2022-10-03T07:23:06.428Z,11.30
2022-10-03T07:26:47.790Z,11.30
2022-10-03T07:30:05.955Z,11.40
2022-10-03T07:33:29.136Z,11.50
2022-10-03T07:37:00.574Z,11.60
2022-10-03T07:40:19.990Z,11.80
2022-10-03T07:43:56.160Z,11.80
2022-10-03T07:47:33.286Z,11.90
2022-10-03T07:50:43.257Z,12.00
2022-10-03T07:53:54.608Z,12.20
2022-10-03T07:57:23.735Z,12.30
2022-10-03T08:00:22.689Z,12.50
2022-10-03T08:03:42.364Z,12.50
2022-10-03T08:06:38.851Z,12.40
2022-10-03T08:10:01.527Z,12.40
2022-10-03T08:13:12.333Z,12.40
2022-10-03T08:16:13.440Z,12.50
2022-10-03T08:19:10.917Z,12.60
2022-10-03T08:22:05.776Z,12.70
2022-10-03T08:25:03.937Z,12.60
2022-10-03T08:28:15.374Z,12.50
2022-10-03T08:31:11.939Z,12.50
2022-10-03T08:34:09.555Z,12.40
2022-10-03T08:37:12.236Z,12.40
2022-10-03T08:40:18.938Z,12.40
2022-10-03T08:43:34.114Z,12.50
2022-10-03T08:46:33.017Z,12.70
2022-10-03T08:49:37.941Z,12.70
2022-10-03T08:52:31.554Z,12.90
2022-10-03T08:55:36.274Z,12.90
2022-10-03T08:58:41.304Z,13.00
2022-10-03T09:01:41.525Z,13.10
2022-10-03T09:05:18.861Z,13.30
2022-10-03T09:08:45.580Z,13.60
2022-10-03T09:12:06.124Z,13.90
2022-10-03T09:15:16.848Z,14.00
2022-10-03T09:18:44.085Z,13.90
2022-10-03T09:22:19.418Z,13.90
2022-10-03T09:25:32.360Z,13.90
2022-10-03T09:28:56.071Z,13.70
2022-10-03T09:32:20.048Z,13.60
2022-10-03T09:35:33.171Z,13.40
2022-10-03T09:39:11.707Z,13.30
2022-10-03T09:42:35.164Z,13.10
2022-10-03T09:45:39.962Z,13.00
2022-10-03T09:48:47.029Z,13.10
2022-10-03T09:51:48.415Z,13.20
2022-10-03T09:55:21.360Z,13.20
2022-10-03T09:58:41.809Z,13.50
2022-10-03T10:01:34.786Z,13.70
2022-10-03T10:04:56.016Z,13.80
2022-10-03T10:08:30.367Z,13.90
2022-10-03T10:11:41.214Z,13.90
2022-10-03T10:14:55.596Z,14.00
2022-10-03T10:18:17.374Z,14.00
2022-10-03T10:21:37.181Z,14.00
2022-10-03T10:25:17.051Z,14.00
2022-10-03T10:28:40.757Z,13.90
2022-10-03T10:32:21.818Z,13.90
2022-10-03T10:36:10.076Z,13.80
2022-10-03T10:39:35.927Z,13.60
2022-10-03T10:42:56.514Z,13.60
2022-10-03T10:46:16.548Z,13.60
2022-10-03T10:49:42.843Z,13.80
2022-10-03T10:53:13.137Z,14.20
2022-10-03T10:56:27.839Z,14.30
2022-10-03T11:00:09.286Z,14.30
2022-10-03T11:03:34.244Z,14.40
2022-10-03T11:07:22.354Z,14.30
2022-10-03T11:10:33.994Z,14.00
2022-10-03T11:14:05.156Z,13.80
2022-10-03T11:17:31.943Z,13.70
2022-10-03T11:20:57.317Z,14.10
2022-10-03T11:24:17.271Z,14.50
2022-10-03T11:27:56.260Z,14.80
2022-10-03T11:31:10.127Z,15.00
2022-10-03T11:34:32.533Z,15.00
2022-10-03T11:37:36.222Z,14.70
2022-10-03T11:40:49.108Z,14.50
2022-10-03T11:44:01.989Z,14.40
2022-10-03T11:47:23.307Z,14.30
2022-10-03T11:50:38.696Z,14.20
2022-10-03T11:53:44.742Z,14.20
2022-10-03T11:56:41.346Z,14.30
2022-10-03T11:59:47.509Z,14.50
2022-10-03T12:02:55.659Z,14.80
2022-10-03T12:06:15.276Z,15.10
2022-10-03T12:09:16.738Z,15.20
2022-10-03T12:12:12.965Z,15.00
2022-10-03T12:15:06.876Z,15.10
2022-10-03T12:18:04.734Z,15.30
2022-10-03T12:21:04.163Z,15.70
2022-10-03T12:24:18.387Z,16.10
2022-10-03T12:27:16.984Z,16.50
2022-10-03T12:30:14.071Z,16.50
2022-10-03T12:33:18.168Z,16.50
2022-10-03T12:36:13.322Z,16.60
2022-10-03T12:39:15.228Z,16.80
2022-10-03T12:42:18.533Z,17.30
2022-10-03T12:45:14.538Z,17.60
2022-10-03T12:48:35.404Z,17.40
2022-10-03T12:51:37.582Z,17.30
2022-10-03T12:54:46.568Z,17.10
2022-10-03T12:57:58.669Z,17.00
2022-10-03T13:00:58.069Z,16.60
2022-10-03T13:03:53.288Z,16.50
2022-10-03T13:07:04.360Z,16.10
2022-10-03T13:10:16.786Z,15.80
2022-10-03T13:13:21.331Z,15.80
2022-10-03T13:16:21.160Z,15.90
2022-10-03T13:19:13.869Z,15.80
2022-10-03T13:22:21.772Z,15.70
2022-10-03T13:25:12.271Z,15.50
2022-10-03T13:28:08.985Z,15.30
2022-10-03T13:31:02.764Z,15.20
2022-10-03T13:33:55.443Z,14.90
2022-10-03T13:36:47.753Z,14.70
2022-10-03T13:39:45.158Z,14.50
2022-10-03T13:42:40.117Z,14.40
2022-10-03T13:45:28.710Z,14.30
2022-10-03T13:48:20.404Z,14.20
2022-10-03T13:51:22.218Z,14.00
2022-10-03T13:54:16.068Z,13.90
2022-10-03T13:57:11.811Z,13.80
2022-10-03T14:00:08.784Z,13.90
2022-10-03T14:03:21.050Z,14.20
2022-10-03T14:06:18.335Z,14.70
2022-10-03T14:09:33.758Z,15.20
2022-10-03T14:12:54.464Z,15.20
2022-10-03T14:15:49.968Z,15.00
2022-10-03T14:18:46.876Z,14.70
2022-10-03T14:21:59.833Z,14.50
2022-10-03T14:25:04.449Z,14.40
2022-10-03T14:27:56.624Z,14.20
2022-10-03T14:31:05.931Z,14.10
2022-10-03T14:33:59.922Z,14.10
2022-10-03T14:36:53.237Z,14.00
2022-10-03T14:39:46.586Z,14.00
2022-10-03T14:42:44.408Z,13.90
2022-10-03T14:45:39.474Z,13.90
2022-10-03T14:48:31.964Z,14.00
2022-10-03T14:51:24.941Z,14.20
2022-10-03T14:54:20.964Z,14.20
2022-10-03T14:57:23.235Z,14.10
2022-10-03T15:00:27.209Z,13.90
2022-10-03T15:03:33.631Z,13.70
2022-10-03T15:06:35.312Z,13.50
2022-10-03T15:09:33.677Z,13.40
2022-10-03T15:12:27.098Z,13.40
2022-10-03T15:15:19.326Z,13.30
2022-10-03T15:18:09.208Z,13.30
2022-10-03T15:20:59.438Z,13.20
2022-10-03T15:23:50.814Z,13.20
2022-10-03T15:26:40.362Z,13.20
2022-10-03T15:29:28.908Z,13.20
2022-10-03T15:32:25.409Z,13.20
2022-10-03T15:35:18.605Z,13.30
2022-10-03T15:38:13.966Z,13.30
2022-10-03T15:41:10.567Z,13.30
2022-10-03T15:44:04.881Z,13.40
2022-10-03T15:46:56.905Z,13.30
2022-10-03T15:49:50.629Z,13.40
2022-10-03T15:52:43.551Z,13.30
2022-10-03T15:55:42.304Z,13.30
2022-10-03T15:58:34.262Z,13.30
2022-10-03T16:01:26.908Z,13.20
2022-10-03T16:04:20.526Z,13.10
2022-10-03T16:07:12.051Z,13.10
2022-10-03T16:10:18.758Z,13.00
2022-10-03T16:13:24.855Z,13.00
2022-10-03T16:16:19.759Z,13.10
2022-10-03T16:19:29.473Z,13.00
2022-10-03T16:22:24.072Z,13.00
2022-10-03T16:25:17.681Z,13.10
2022-10-03T16:28:13.417Z,13.00
2022-10-03T16:31:04.975Z,13.10
2022-10-03T16:33:58.253Z,13.10
2022-10-03T16:36:48.874Z,13.10
2022-10-03T16:39:38.689Z,13.00
2022-10-03T16:42:31.234Z,13.00
2022-10-03T16:45:27.546Z,12.90
2022-10-03T16:48:40.154Z,12.90
2022-10-03T16:51:39.265Z,12.80
2022-10-03T16:54:30.137Z,12.70
2022-10-03T16:57:21.734Z,12.60
2022-10-03T17:00:16.995Z,12.60
2022-10-03T17:03:15.862Z,12.50
2022-10-03T17:06:07.382Z,12.50
2022-10-03T17:08:59.394Z,12.50
2022-10-03T17:11:52.634Z,12.40
2022-10-03T17:14:44.633Z,12.40
2022-10-03T17:17:39.980Z,12.30
2022-10-03T17:20:41.084Z,12.20
2022-10-03T17:23:35.904Z,12.10
2022-10-03T17:26:29.715Z,12.00
2022-10-03T17:29:23.915Z,11.90
2022-10-03T17:32:20.363Z,11.80
2022-10-03T17:35:15.690Z,11.70
2022-10-03T17:38:48.913Z,11.60
2022-10-03T17:41:37.126Z,11.60
2022-10-03T17:44:30.271Z,11.50
2022-10-03T17:47:20.453Z,11.40
2022-10-03T17:50:09.360Z,11.40
2022-10-03T17:52:57.690Z,11.30
2022-10-03T17:55:45.882Z,11.30
2022-10-03T17:58:35.021Z,11.20
2022-10-03T18:01:26.050Z,11.10
2022-10-03T18:04:19.122Z,11.10
2022-10-03T18:07:10.411Z,11.00
2022-10-03T18:09:58.539Z,11.00
2022-10-03T18:12:48.267Z,11.00
2022-10-03T18:15:56.925Z,11.00
2022-10-03T18:18:53.887Z,11.00
2022-10-03T18:21:49.840Z,11.00
2022-10-03T18:24:41.585Z,11.00
2022-10-03T18:27:44.066Z,11.10
2022-10-03T18:30:34.076Z,11.10
2022-10-03T18:33:25.157Z,11.10
2022-10-03T18:36:16.265Z,11.10
2022-10-03T18:39:07.657Z,11.10
2022-10-03T18:41:58.407Z,11.20
2022-10-03T18:44:46.947Z,11.20
2022-10-03T18:47:36.517Z,11.20
2022-10-03T18:50:27.420Z,11.20
2022-10-03T18:53:19.334Z,11.20
2022-10-03T18:56:08.678Z,11.30
2022-10-03T18:59:08.365Z,11.30
2022-10-03T19:01:56.664Z,11.40
2022-10-03T19:04:46.689Z,11.50
2022-10-03T19:07:35.341Z,11.60
2022-10-03T19:10:41.031Z,11.60
2022-10-03T19:13:30.457Z,11.60
2022-10-03T19:16:29.176Z,11.70
2022-10-03T19:19:22.689Z,11.70
2022-10-03T19:22:13.387Z,11.70
2022-10-03T19:25:04.211Z,11.70
2022-10-03T19:27:57.327Z,11.60
2022-10-03T19:30:45.203Z,11.60
2022-10-03T19:33:33.586Z,11.60
2022-10-03T19:36:22.966Z,11.50
2022-10-03T19:39:14.481Z,11.50
2022-10-03T19:42:07.355Z,11.40
2022-10-03T19:44:58.140Z,11.40
2022-10-03T19:47:50.174Z,11.30
2022-10-03T19:50:38.963Z,11.30
2022-10-03T19:53:26.547Z,11.30
2022-10-03T19:56:15.770Z,11.30
2022-10-03T19:59:05.140Z,11.30
2022-10-03T20:01:54.315Z,11.40
2022-10-03T20:05:00.830Z,11.40
2022-10-03T20:07:53.004Z,11.50
2022-10-03T20:10:45.703Z,11.50
2022-10-03T20:13:33.346Z,11.60
2022-10-03T20:16:22.912Z,11.60
2022-10-03T20:19:13.538Z,11.60
2022-10-03T20:22:04.095Z,11.60
2022-10-03T20:24:52.058Z,11.60
2022-10-03T20:27:42.403Z,11.60
2022-10-03T20:30:36.406Z,11.60
2022-10-03T20:33:25.519Z,11.60
2022-10-03T20:36:15.293Z,11.60
2022-10-03T20:39:06.262Z,11.60
2022-10-03T20:41:59.572Z,11.60
2022-10-03T20:44:55.173Z,11.70
2022-10-03T20:47:48.514Z,11.70
2022-10-03T20:50:41.260Z,11.70
2022-10-03T20:53:32.343Z,11.70
2022-10-03T20:56:25.807Z,11.70
2022-10-03T20:59:15.070Z,11.70
2022-10-03T21:02:07.409Z,11.70
2022-10-03T21:04:59.691Z,11.70
2022-10-03T21:07:50.208Z,11.60
2022-10-03T21:10:41.716Z,11.60
2022-10-03T21:13:33.622Z,11.50
2022-10-03T21:16:24.744Z,11.50
2022-10-03T21:19:18.107Z,11.50
2022-10-03T21:22:11.606Z,11.50
2022-10-03T21:25:03.534Z,11.50
2022-10-03T21:27:57.171Z,11.50
2022-10-03T21:30:59.341Z,11.50
2022-10-03T21:33:56.673Z,11.50
2022-10-03T21:36:53.233Z,11.60
2022-10-03T21:39:52.714Z,11.70
2022-10-03T21:42:53.667Z,11.70
2022-10-03T21:45:54.321Z,11.80
2022-10-03T21:49:00.707Z,11.80
2022-10-03T21:52:08.331Z,11.80
2022-10-03T21:55:17.407Z,11.80
2022-10-03T21:58:16.883Z,11.80
2022-10-03T22:01:14.788Z,11.80
2022-10-03T22:04:07.719Z,11.80
2022-10-03T22:07:04.335Z,11.80
2022-10-03T22:09:56.445Z,11.80
2022-10-03T22:12:48.717Z,11.80
2022-10-03T22:15:45.186Z,11.80
2022-10-03T22:18:43.389Z,11.70
2022-10-03T22:21:39.954Z,11.70
2022-10-03T22:24:36.396Z,11.60
2022-10-03T22:27:31.712Z,11.70
2022-10-03T22:30:21.696Z,11.70
2022-10-03T22:33:17.054Z,11.70
2022-10-03T22:36:10.772Z,11.70
2022-10-03T22:38:58.415Z,11.70
2022-10-03T22:41:50.544Z,11.70
2022-10-03T22:44:43.863Z,11.70
2022-10-03T22:47:34.225Z,11.70
2022-10-03T22:50:28.645Z,11.60
2022-10-03T22:53:19.669Z,11.60
2022-10-03T22:56:21.654Z,11.60
2022-10-03T22:59:12.244Z,11.60
2022-10-03T23:02:00.848Z,11.60
2022-10-03T23:04:50.825Z,11.60
2022-10-03T23:07:56.005Z,11.70
2022-10-03T23:10:49.954Z,11.60
2022-10-03T23:13:38.920Z,11.60
2022-10-03T23:16:41.107Z,11.60
2022-10-03T23:19:33.943Z,11.60
2022-10-03T23:22:22.825Z,11.60
2022-10-03T23:25:16.233Z,11.60
2022-10-03T23:28:14.290Z,11.60
2022-10-03T23:31:01.994Z,11.60
2022-10-03T23:33:51.296Z,11.50
2022-10-03T23:36:59.285Z,11.50
2022-10-03T23:40:12.963Z,11.50
2022-10-03T23:43:02.502Z,11.50
2022-10-03T23:45:53.017Z,11.50
2022-10-03T23:48:42.489Z,11.50
2022-10-03T23:51:33.005Z,11.50
2022-10-03T23:54:20.652Z,11.50
2022-10-03T23:57:08.642Z,11.50
2022-10-03T23:59:55.891Z,11.50
